Time;durP1;ratioP1;P1;durP2;ratioP2;P2;SDS_P1;SDS_P2;PMS_P1;PMS_P2;Temp;Humidity;BMP_temperature;BMP_pressure;BME280_temperature;BME280_humidity;BME280_pressure;Samples;Min_cycle;Max_cycle;Signal;HPM_P1;HPM_P2
2023/01/22 00:06:05;;;;;;;22.07;13.70;;;;;;;2.52;59.58;101985.97;20920256;28;20220;-85
2023/01/22 00:16:11;;;;;;;17.80;11.83;;;;;;;1.66;60.91;101961.38;20924631;28;20204;-87
2023/01/22 00:26:15;;;;;;;16.67;11.60;;;;;;;2.12;59.52;101972.31;20924114;28;20195;-86
2023/01/22 00:36:21;;;;;;;16.17;11.57;;;;;;;2.56;58.79;101965.03;20943421;28;20238;-86
2023/01/22 00:46:23;;;;;;;16.07;11.53;;;;;;;2.23;59.18;101967.16;20928765;28;20261;-86
2023/01/22 00:56:27;;;;;;;14.70;11.43;;;;;;;2.13;60.00;101951.88;20915401;28;20270;-84
2023/01/22 01:06:30;;;;;;;14.83;11.50;;;;;;;2.39;58.39;101950.03;20925310;28;20223;-85
2023/01/22 01:16:32;;;;;;;14.57;11.10;;;;;;;2.49;59.27;101940.16;20921077;28;20521;-87
2023/01/22 01:26:36;;;;;;;15.60;11.27;;;;;;;2.26;60.62;101936.25;20918992;28;20192;-87
2023/01/22 01:36:38;;;;;;;13.40;10.73;;;;;;;2.48;61.08;101934.84;20915383;28;20224;-84
2023/01/22 01:46:53;;;;;;;14.13;9.97;;;;;;;2.38;61.08;101946.41;20907333;28;20196;-88
2023/01/22 01:57:16;;;;;;;12.27;9.37;;;;;;;2.49;59.72;101937.41;20934654;28;20203;-84
2023/01/22 02:07:19;;;;;;;13.60;9.63;;;;;;;2.24;61.62;101924.56;20932233;28;20227;-85
2023/01/22 02:17:21;;;;;;;15.10;10.80;;;;;;;1.35;63.46;101922.53;20903029;28;20520;-86
2023/01/22 02:27:25;;;;;;;11.87;9.43;;;;;;;2.00;62.15;101915.94;20925595;28;20193;-84
2023/01/22 02:37:28;;;;;;;12.80;9.60;;;;;;;1.97;61.51;101921.91;20926742;28;20275;-87
2023/01/22 02:47:30;;;;;;;12.67;9.63;;;;;;;2.47;60.37;101913.75;20926602;28;20188;-86
2023/01/22 02:57:33;;;;;;;13.93;9.87;;;;;;;1.93;62.30;101923.41;20913860;28;20219;-86
2023/01/22 03:07:43;;;;;;;13.23;9.73;;;;;;;2.02;62.34;101918.47;20941481;28;20216;-86
2023/01/22 03:28:17;;;;;;;10.90;9.07;;;;;;;2.09;63.04;101892.47;20944820;28;20214;-84
2023/01/22 03:38:25;;;;;;;12.27;9.37;;;;;;;1.77;64.91;101907.28;20941426;28;20273;-86
2023/01/22 03:48:28;;;;;;;12.27;9.17;;;;;;;2.08;64.41;101901.84;20926468;28;20481;-86
2023/01/22 03:58:31;;;;;;;11.07;9.90;;;;;;;1.84;65.48;101898.97;20922212;28;20269;-88
2023/01/22 04:08:35;;;;;;;11.77;9.80;;;;;;;1.81;66.01;101901.13;20931961;28;20215;-87
2023/01/22 04:18:39;;;;;;;13.77;10.50;;;;;;;2.00;65.24;101907.66;20894324;28;20257;-87
2023/01/22 04:29:01;;;;;;;14.10;10.90;;;;;;;1.56;67.25;101911.19;20919552;28;20199;-86
2023/01/22 04:39:04;;;;;;;12.57;10.20;;;;;;;1.96;66.61;101905.53;20937472;28;20261;-85
2023/01/22 04:49:07;;;;;;;13.13;11.30;;;;;;;1.95;66.34;101912.13;20892081;28;20192;-85
2023/01/22 04:59:10;;;;;;;14.07;10.97;;;;;;;2.21;65.81;101911.16;20907221;28;20289;-84
2023/01/22 05:09:12;;;;;;;14.50;11.67;;;;;;;1.96;66.06;101909.16;20918480;28;20255;-87
2023/01/22 05:19:29;;;;;;;13.37;10.93;;;;;;;2.15;65.65;101902.66;20925195;28;20497;-85
2023/01/22 05:29:31;;;;;;;17.47;12.30;;;;;;;2.32;65.53;101907.66;20935772;28;20191;-85
2023/01/22 05:39:46;;;;;;;15.07;11.73;;;;;;;2.23;65.60;101903.47;20902062;28;20253;-86
2023/01/22 05:49:50;;;;;;;13.50;10.83;;;;;;;2.20;65.40;101912.22;20919892;28;20195;-85
2023/01/22 05:59:53;;;;;;;17.30;11.87;;;;;;;1.95;66.08;101915.75;20920197;28;20685;-87
2023/01/22 06:09:55;;;;;;;13.27;11.03;;;;;;;2.03;66.20;101915.47;20946620;28;20568;-86
2023/01/22 06:19:58;;;;;;;14.17;10.60;;;;;;;1.83;66.95;101909.19;20972153;28;20530;-85
2023/01/22 06:30:00;;;;;;;11.50;9.60;;;;;;;1.90;66.46;101910.00;20931568;28;20204;-84
2023/01/22 06:40:04;;;;;;;13.57;10.53;;;;;;;2.00;66.38;101915.94;20952656;28;20224;-85
2023/01/22 06:50:15;;;;;;;13.67;10.97;;;;;;;1.75;66.82;101918.56;20917635;28;20465;-87
2023/01/22 07:00:19;;;;;;;13.70;10.33;;;;;;;2.08;66.44;101934.22;20950154;28;20635;-86
2023/01/22 07:10:21;;;;;;;12.50;10.37;;;;;;;2.03;66.44;101936.78;20930816;28;20227;-86
2023/01/22 07:20:24;;;;;;;10.87;9.27;;;;;;;1.96;67.40;101958.94;20937118;28;20528;-86
2023/01/22 07:30:26;;;;;;;12.97;10.80;;;;;;;2.24;65.43;101960.53;20944170;28;20653;-85
2023/01/22 07:40:28;;;;;;;12.67;10.13;;;;;;;2.32;64.98;101974.13;20921295;28;20270;-87
2023/01/22 07:50:32;;;;;;;16.27;11.70;;;;;;;2.00;66.09;101976.84;20946608;28;20257;-87
2023/01/22 08:00:35;;;;;;;13.97;11.63;;;;;;;2.30;66.37;101981.78;20944485;28;20242;-87
2023/01/22 08:10:37;;;;;;;14.83;12.07;;;;;;;2.42;65.47;101994.72;20927789;28;20528;-87
2023/01/22 08:20:42;;;;;;;15.10;12.10;;;;;;;2.66;65.12;101993.09;20928819;28;20228;-87
2023/01/22 08:30:45;;;;;;;15.07;12.07;;;;;;;2.31;65.28;101994.56;20911100;28;20219;-85
2023/01/22 08:40:50;;;;;;;15.77;12.30;;;;;;;2.78;64.68;102001.59;20955274;28;20223;-88
2023/01/22 08:50:53;;;;;;;14.83;11.93;;;;;;;2.70;64.96;101996.28;20947736;28;20191;-85
2023/01/22 09:00:57;;;;;;;14.27;11.23;;;;;;;2.36;66.22;102003.09;20946177;28;20215;-88
2023/01/22 09:10:59;;;;;;;15.67;11.73;;;;;;;2.83;64.62;101994.28;20920799;28;22161;-85
2023/01/22 09:21:03;;;;;;;12.83;11.50;;;;;;;2.99;64.86;101989.28;20923390;28;20493;-85
2023/01/22 09:31:05;;;;;;;13.80;11.43;;;;;;;2.88;63.97;102001.94;20925216;28;20207;-84
2023/01/22 09:41:19;;;;;;;13.27;11.80;;;;;;;2.92;64.29;102013.44;20896348;28;20211;-83
2023/01/22 09:51:21;;;;;;;14.60;11.77;;;;;;;2.77;65.29;101999.88;20917510;28;20192;-85
2023/01/22 10:01:25;;;;;;;12.57;11.17;;;;;;;3.19;63.74;102014.91;20927013;28;20312;-84
2023/01/22 10:11:27;;;;;;;14.40;11.13;;;;;;;2.99;64.03;102009.53;20877531;28;20243;-84
2023/01/22 10:21:51;;;;;;;12.63;10.73;;;;;;;2.89;64.15;101996.16;20868732;28;20714;-84
2023/01/22 10:31:56;;;;;;;12.33;10.53;;;;;;;3.08;64.07;101996.22;20878590;28;20216;-82
2023/01/22 10:42:00;;;;;;;11.10;9.97;;;;;;;3.56;62.15;102002.91;20916589;28;20223;-84
2023/01/22 10:52:21;;;;;;;12.27;10.93;;;;;;;2.38;66.53;101995.41;20932799;28;20241;-83
2023/01/22 11:02:25;;;;;;;12.30;10.90;;;;;;;3.31;63.84;101993.69;20936145;28;20364;-83
2023/01/22 11:12:34;;;;;;;13.73;10.97;;;;;;;3.48;63.42;101992.09;20914736;28;20191;-83
2023/01/22 11:22:38;;;;;;;12.23;11.00;;;;;;;2.89;65.23;101985.09;20944498;28;20710;-82
2023/01/22 11:32:50;;;;;;;10.87;9.73;;;;;;;3.33;63.27;101987.94;20951891;27;20781;-84
2023/01/22 11:43:21;;;;;;;10.90;9.67;;;;;;;2.84;66.39;101990.44;20919797;28;20512;-82
2023/01/22 11:53:23;;;;;;;11.40;10.20;;;;;;;3.03;65.19;101982.22;20928123;28;20222;-84
2023/01/22 12:03:51;;;;;;;11.17;9.73;;;;;;;2.99;64.54;101986.50;20893274;28;20251;-82
2023/01/22 12:14:21;;;;;;;10.77;9.50;;;;;;;2.87;65.21;101978.91;20931966;28;20195;-83
2023/01/22 12:24:36;;;;;;;12.87;10.10;;;;;;;3.25;64.12;101989.06;20946488;28;20270;-82
2023/01/22 12:34:41;;;;;;;12.93;10.83;;;;;;;3.70;63.09;101986.13;20925598;28;20212;-84
2023/01/22 12:45:01;;;;;;;14.33;11.20;;;;;;;3.64;63.02;101995.34;20921428;28;20253;-84
2023/01/22 12:55:30;;;;;;;14.83;13.10;;;;;;;3.45;63.31;101991.69;20914417;28;20245;-83
2023/01/22 13:05:33;;;;;;;14.23;12.70;;;;;;;2.78;66.85;101994.13;20906093;28;20255;-84
2023/01/22 13:15:37;;;;;;;16.03;13.33;;;;;;;3.53;63.74;101988.63;20887109;28;20365;-82
2023/01/22 13:25:41;;;;;;;17.60;13.17;;;;;;;3.32;64.73;101998.19;20915932;28;20240;-83
2023/01/22 13:35:45;;;;;;;14.93;13.30;;;;;;;3.18;64.79;101991.03;20925084;28;20280;-83
2023/01/22 13:45:49;;;;;;;15.20;11.87;;;;;;;3.10;65.07;101994.09;20937186;28;20257;-83
2023/01/22 13:55:52;;;;;;;14.37;12.20;;;;;;;3.57;63.63;101996.25;20915350;28;20254;-83
2023/01/22 14:06:04;;;;;;;21.80;13.67;;;;;;;3.32;64.60;102002.88;20891719;28;20904;-81
2023/01/22 14:16:07;;;;;;;19.93;15.27;;;;;;;2.84;66.67;102009.84;20925907;28;20226;-81
2023/01/22 14:26:09;;;;;;;21.00;15.87;;;;;;;3.07;65.80;102014.78;20913220;28;20236;-83
2023/01/22 14:36:12;;;;;;;21.40;13.93;;;;;;;3.06;65.84;102031.63;20917079;28;20320;-82
2023/01/22 14:46:14;;;;;;;17.83;12.57;;;;;;;3.46;64.57;102040.53;20929751;28;20291;-82
2023/01/22 14:56:16;;;;;;;18.00;13.37;;;;;;;3.30;65.83;102044.72;20939104;28;20246;-82
2023/01/22 15:06:19;;;;;;;16.87;13.77;;;;;;;3.07;65.98;102055.53;20944251;28;20250;-82
2023/01/22 15:16:21;;;;;;;16.63;13.17;;;;;;;2.93;66.66;102059.44;20938474;28;20241;-82
2023/01/22 15:26:24;;;;;;;15.50;13.00;;;;;;;3.41;64.32;102063.44;20911568;28;20266;-83
2023/01/22 15:36:31;;;;;;;17.57;13.13;;;;;;;3.58;64.46;102070.09;20920859;28;20258;-81
2023/01/22 15:46:35;;;;;;;19.70;13.80;;;;;;;3.68;63.87;102090.94;20951428;28;20215;-81
2023/01/22 15:56:38;;;;;;;19.80;14.33;;;;;;;3.05;66.73;102091.78;20952202;28;20256;-84
2023/01/22 16:06:41;;;;;;;21.30;12.83;;;;;;;3.54;64.03;102087.44;20934032;28;20336;-83
2023/01/22 16:16:43;;;;;;;21.43;13.37;;;;;;;3.15;65.97;102096.84;20924692;28;20595;-83
2023/01/22 16:26:45;;;;;;;18.90;13.30;;;;;;;3.27;65.64;102089.53;20933047;28;20269;-82
2023/01/22 16:36:48;;;;;;;17.53;13.67;;;;;;;3.33;66.13;102088.63;20918364;28;20326;-82
2023/01/22 16:46:53;;;;;;;23.73;13.90;;;;;;;3.16;66.72;102084.69;20963138;28;20550;-81
2023/01/22 16:56:56;;;;;;;22.00;14.40;;;;;;;3.71;64.41;102091.31;20928500;28;20192;-82
2023/01/22 17:06:59;;;;;;;25.57;16.73;;;;;;;3.24;66.34;102095.50;20902412;28;20639;-81
2023/01/22 17:17:01;;;;;;;23.40;16.87;;;;;;;3.43;65.75;102093.72;20906423;28;20492;-82
2023/01/22 17:27:04;;;;;;;23.60;16.20;;;;;;;3.59;65.18;102091.22;20882751;28;20890;-82
2023/01/22 17:37:09;;;;;;;28.23;15.93;;;;;;;3.20;66.71;102099.78;20896317;28;20212;-84
2023/01/22 17:47:12;;;;;;;19.67;14.47;;;;;;;3.46;65.65;102105.19;20927031;28;20296;-82
2023/01/22 17:57:14;;;;;;;21.97;15.37;;;;;;;3.41;65.45;102118.06;20911615;28;20225;-83
2023/01/22 18:07:17;;;;;;;20.83;14.67;;;;;;;3.43;66.57;102133.41;20904235;28;20223;-85
2023/01/22 18:17:19;;;;;;;20.30;13.83;;;;;;;3.49;65.17;102138.03;20908509;28;20252;-83
2023/01/22 18:27:21;;;;;;;16.00;13.43;;;;;;;3.28;66.24;102138.38;20925322;28;20216;-80
2023/01/22 18:37:23;;;;;;;17.80;12.57;;;;;;;3.44;65.97;102146.16;20935936;28;20829;-83
2023/01/22 18:47:28;;;;;;;16.73;12.90;;;;;;;3.56;66.10;102149.97;20912589;28;20247;-83
2023/01/22 18:57:34;;;;;;;20.17;13.40;;;;;;;3.47;65.63;102162.38;20928171;28;20200;-85
2023/01/22 19:07:37;;;;;;;18.43;12.40;;;;;;;3.66;65.11;102170.78;20945868;28;20281;-90
2023/01/22 19:17:40;;;;;;;20.37;13.23;;;;;;;3.60;65.45;102173.38;20916425;28;20252;-82
2023/01/22 19:27:42;;;;;;;19.87;13.57;;;;;;;3.06;67.23;102184.97;20908455;28;20797;-82
2023/01/22 19:37:44;;;;;;;17.30;13.23;;;;;;;3.75;65.51;102183.31;20902432;28;20240;-85
2023/01/22 19:47:47;;;;;;;19.87;12.80;;;;;;;3.31;67.16;102198.91;20921789;28;20231;-83
2023/01/22 19:57:49;;;;;;;18.93;13.10;;;;;;;3.80;65.06;102194.59;20913895;28;20196;-84
2023/01/22 20:07:55;;;;;;;18.03;13.47;;;;;;;3.45;66.62;102203.34;20917912;28;20706;-84
2023/01/22 20:17:57;;;;;;;18.07;12.07;;;;;;;3.43;66.45;102211.06;20916944;28;20258;-85
2023/01/22 20:28:00;;;;;;;15.47;11.67;;;;;;;4.06;64.32;102213.84;20915559;28;20824;-86
2023/01/22 20:38:02;;;;;;;16.00;11.97;;;;;;;3.58;66.58;102207.97;20920346;28;20729;-85
2023/01/22 20:48:04;;;;;;;16.20;12.37;;;;;;;3.74;65.66;102212.13;20931993;28;20613;-84
2023/01/22 20:58:07;;;;;;;18.07;13.27;;;;;;;3.87;65.73;102220.38;20951792;28;20223;-84
2023/01/22 21:08:09;;;;;;;20.07;13.17;;;;;;;3.75;66.35;102230.50;20921023;28;20281;-86
2023/01/22 21:18:11;;;;;;;18.73;13.43;;;;;;;3.73;66.28;102230.72;20951769;28;20276;-86
2023/01/22 21:28:13;;;;;;;19.10;14.03;;;;;;;4.13;65.33;102224.88;20906120;28;20280;-87
2023/01/22 21:38:19;;;;;;;22.17;13.93;;;;;;;4.01;64.76;102226.69;20903135;28;20235;-86
2023/01/22 21:48:21;;;;;;;21.03;13.93;;;;;;;4.15;64.77;102231.91;20899742;28;20215;-87
2023/01/22 21:58:24;;;;;;;19.90;14.40;;;;;;;3.73;66.78;102235.41;20945287;28;20324;-85
2023/01/22 22:08:27;;;;;;;20.90;13.67;;;;;;;3.91;66.22;102227.19;20941069;28;20583;-85
2023/01/22 22:18:30;;;;;;;18.63;12.70;;;;;;;3.96;65.20;102221.78;20910381;28;20191;-84
2023/01/22 22:28:33;;;;;;;21.37;15.17;;;;;;;3.81;65.61;102226.84;20952579;28;20273;-85
2023/01/22 22:38:36;;;;;;;23.23;14.27;;;;;;;4.14;64.67;102234.91;20928082;28;20216;-84
2023/01/22 22:48:38;;;;;;;20.30;14.73;;;;;;;4.01;65.40;102246.97;20896415;28;20223;-85
2023/01/22 22:58:41;;;;;;;19.00;13.87;;;;;;;3.82;65.86;102259.94;20915384;28;20646;-85
2023/01/22 23:08:46;;;;;;;17.53;13.83;;;;;;;3.81;65.62;102252.69;20925903;28;20301;-84
2023/01/22 23:18:50;;;;;;;17.53;13.33;;;;;;;3.85;65.13;102253.91;20913612;28;20222;-84
2023/01/22 23:28:56;;;;;;;17.57;13.47;;;;;;;3.86;65.27;102251.97;20910104;28;20231;-84
2023/01/22 23:38:58;;;;;;;17.10;12.50;;;;;;;3.67;65.58;102250.19;20917762;28;20220;-84
2023/01/22 23:49:02;;;;;;;13.07;10.77;;;;;;;3.34;66.62;102269.78;20912412;28;20212;-84
2023/01/22 23:59:04;;;;;;;17.23;11.57;;;;;;;3.85;63.94;102273.34;20910311;28;20196;-85
